Time,TemperatureF,DewpointF,PressureIn,WindDirection,WindDirectionDegrees,WindSpeedMPH,WindSpeedGustMPH,Humidity,HourlyPrecipIn,Conditions,Clouds,dailyrainin,SoftwareType,DateUTC
2013-04-12 00:03:00,55.0,48.9,29.81,WSW,244,1.0,4.0,80,0.00,,,0.00,WeatherTracker,2013-04-12 07:03:00,
2013-04-12 00:08:00,54.8,48.7,29.81,WSW,254,2.0,5.0,80,0.00,,,0.00,WeatherTracker,2013-04-12 07:08:00,
2013-04-12 00:13:00,54.3,48.3,29.82,WNW,299,5.0,5.0,80,0.00,,,0.00,WeatherTracker,2013-04-12 07:13:00,
2013-04-12 00:18:00,54.0,48.6,29.82,NW,312,2.0,6.0,82,0.00,,,0.00,WeatherTracker,2013-04-12 07:18:00,
2013-04-12 00:23:00,53.7,48.3,29.82,NW,312,5.0,6.0,82,0.00,,,0.00,WeatherTracker,2013-04-12 07:23:00,
2013-04-12 00:28:00,53.4,48.0,29.82,WNW,303,2.0,7.0,82,0.00,,,0.00,WeatherTracker,2013-04-12 07:28:00,
2013-04-12 00:33:00,53.3,48.3,29.81,NW,317,2.0,7.0,83,0.00,,,0.00,WeatherTracker,2013-04-12 07:33:00,
2013-04-12 00:39:00,53.3,48.3,29.81,NNE,18,2.0,6.0,83,0.00,,,0.00,WeatherTracker,2013-04-12 07:39:00,
2013-04-12 00:44:00,53.3,48.6,29.82,ENE,60,5.0,6.0,84,0.00,,,0.00,WeatherTracker,2013-04-12 07:44:00,
2013-04-12 00:49:00,53.2,48.5,29.82,ENE,69,4.0,7.0,84,0.00,,,0.00,WeatherTracker,2013-04-12 07:49:00,
2013-04-12 00:54:00,53.1,48.7,29.82,ENE,69,3.0,7.0,85,0.00,,,0.00,WeatherTracker,2013-04-12 07:54:00,
2013-04-12 00:59:00,52.9,48.5,29.82,ENE,71,4.0,6.0,85,0.00,,,0.00,WeatherTracker,2013-04-12 07:59:00,
2013-04-12 01:04:00,52.8,48.4,29.82,ENE,71,2.0,5.0,85,0.00,,,0.00,WeatherTracker,2013-04-12 08:04:00,
2013-04-12 01:09:00,52.7,48.0,29.82,ENE,71,0.0,5.0,84,0.00,,,0.00,WeatherTracker,2013-04-12 08:09:00,
2013-04-12 01:14:00,52.7,48.0,29.83,ENE,71,0.0,2.0,84,0.00,,,0.00,WeatherTracker,2013-04-12 08:14:00,
2013-04-12 01:19:00,52.7,48.0,29.83,ENE,71,0.0,2.0,84,0.00,,,0.00,WeatherTracker,2013-04-12 08:19:00,
2013-04-12 01:24:00,52.8,48.4,29.83,ESE,117,4.0,6.0,85,0.00,,,0.00,WeatherTracker,2013-04-12 08:24:00,
2013-04-12 01:29:00,52.9,48.5,29.83,ESE,111,3.0,6.0,85,0.00,,,0.00,WeatherTracker,2013-04-12 08:29:00,
2013-04-12 01:34:00,52.8,48.4,29.83,East,82,4.0,5.0,85,0.00,,,0.00,WeatherTracker,2013-04-12 08:34:00,
2013-04-12 01:39:00,52.7,48.3,29.83,East,83,2.0,5.0,85,0.00,,,0.00,WeatherTracker,2013-04-12 08:39:00,
2013-04-12 01:44:00,52.6,48.2,29.82,East,83,2.0,5.0,85,0.00,,,0.00,WeatherTracker,2013-04-12 08:44:00,
2013-04-12 01:49:00,52.5,48.4,29.82,ESE,105,4.0,5.0,86,0.00,,,0.00,WeatherTracker,2013-04-12 08:49:00,
2013-04-12 01:54:00,52.2,48.1,29.82,SE,134,7.0,7.0,86,0.00,,,0.00,WeatherTracker,2013-04-12 08:54:00,
2013-04-12 01:59:00,51.7,48.0,29.82,SE,133,6.0,7.0,87,0.00,,,0.00,WeatherTracker,2013-04-12 08:59:00,
2013-04-12 02:04:00,51.3,47.6,29.82,SE,140,5.0,9.0,87,0.00,,,0.00,WeatherTracker,2013-04-12 09:04:00,
2013-04-12 02:09:00,51.3,47.9,29.82,SE,141,4.0,9.0,88,0.00,,,0.00,WeatherTracker,2013-04-12 09:09:00,
2013-04-12 02:14:00,51.2,47.8,29.83,SE,142,1.0,7.0,88,0.00,,,0.00,WeatherTracker,2013-04-12 09:14:00,
2013-04-12 02:19:00,51.2,47.8,29.83,SE,141,3.0,7.0,88,0.00,,,0.00,WeatherTracker,2013-04-12 09:19:00,
2013-04-12 02:25:00,51.2,47.8,29.83,SSE,147,2.0,5.0,88,0.00,,,0.00,WeatherTracker,2013-04-12 09:25:00,
2013-04-12 02:30:00,51.3,47.9,29.82,South,169,2.0,7.0,88,0.00,,,0.00,WeatherTracker,2013-04-12 09:30:00,
2013-04-12 02:35:00,51.3,47.9,29.82,South,179,6.0,7.0,88,0.00,,,0.00,WeatherTracker,2013-04-12 09:35:00,
2013-04-12 02:40:00,51.4,48.3,29.82,South,182,5.0,7.0,89,0.00,,,0.00,WeatherTracker,2013-04-12 09:40:00,
2013-04-12 02:45:00,51.2,47.8,29.82,South,183,3.0,7.0,88,0.00,,,0.00,WeatherTracker,2013-04-12 09:45:00,
2013-04-12 02:50:00,51.2,47.8,29.82,South,186,4.0,6.0,88,0.00,,,0.00,WeatherTracker,2013-04-12 09:50:00,
2013-04-12 02:55:00,51.7,48.0,29.82,South,188,3.0,6.0,87,0.00,,,0.00,WeatherTracker,2013-04-12 09:55:00,
2013-04-12 03:00:00,52.1,48.0,29.82,South,186,4.0,6.0,86,0.00,,,0.00,WeatherTracker,2013-04-12 10:00:00,
2013-04-12 03:05:00,52.2,47.8,29.82,South,186,2.0,6.0,85,0.00,,,0.00,WeatherTracker,2013-04-12 10:05:00,
2013-04-12 03:10:00,52.3,47.9,29.82,South,186,3.0,6.0,85,0.00,,,0.00,WeatherTracker,2013-04-12 10:10:00,
2013-04-12 03:15:00,52.5,48.1,29.82,South,178,4.0,7.0,85,0.00,,,0.00,WeatherTracker,2013-04-12 10:15:00,
2013-04-12 03:20:00,52.4,47.7,29.82,South,178,2.0,7.0,84,0.00,,,0.00,WeatherTracker,2013-04-12 10:20:00,
2013-04-12 03:25:00,52.1,47.4,29.82,SE,140,7.0,9.0,84,0.00,,,0.00,WeatherTracker,2013-04-12 10:25:00,
2013-04-12 03:30:00,51.8,47.4,29.81,SSE,168,4.0,10.0,85,0.00,,,0.00,WeatherTracker,2013-04-12 10:30:00,
2013-04-12 03:35:00,51.7,47.3,29.81,SSE,168,0.0,10.0,85,0.00,,,0.00,WeatherTracker,2013-04-12 10:35:00,
2013-04-12 03:40:00,51.7,47.3,29.81,SSE,168,0.0,6.0,85,0.00,,,0.00,WeatherTracker,2013-04-12 10:40:00,
2013-04-12 03:45:00,51.5,47.1,29.81,SSE,168,2.0,3.0,85,0.00,,,0.00,WeatherTracker,2013-04-12 10:45:00,
2013-04-12 03:50:00,51.3,46.9,29.81,SSE,168,0.0,2.0,85,0.00,,,0.00,WeatherTracker,2013-04-12 10:50:00,
2013-04-12 03:55:00,51.0,46.7,29.81,SSE,168,0.0,2.0,85,0.00,,,0.00,WeatherTracker,2013-04-12 10:55:00,
2013-04-12 04:00:00,50.8,46.8,29.81,SSE,168,0.0,0.0,86,0.00,,,0.00,WeatherTracker,2013-04-12 11:00:00,
2013-04-12 04:05:00,50.9,46.9,29.81,SSE,168,1.0,4.0,86,0.00,,,0.00,WeatherTracker,2013-04-12 11:05:00,
2013-04-12 04:10:00,50.8,47.1,29.81,SSE,163,4.0,6.0,87,0.00,,,0.00,WeatherTracker,2013-04-12 11:10:00,
2013-04-12 04:16:00,50.6,46.9,29.81,South,182,6.0,7.0,87,0.00,,,0.00,WeatherTracker,2013-04-12 11:16:00,
2013-04-12 04:21:00,50.5,47.1,29.81,South,181,6.0,11.0,88,0.00,,,0.00,WeatherTracker,2013-04-12 11:21:00,
2013-04-12 04:26:00,50.5,47.4,29.81,South,178,3.0,11.0,89,0.00,,,0.00,WeatherTracker,2013-04-12 11:26:00,
2013-04-12 04:31:00,50.1,46.7,29.82,South,179,2.0,10.0,88,0.00,,,0.00,WeatherTracker,2013-04-12 11:31:00,
2013-04-12 04:36:00,49.9,46.5,29.82,South,178,1.0,5.0,88,0.00,,,0.00,WeatherTracker,2013-04-12 11:36:00,
2013-04-12 04:41:00,49.7,46.3,29.82,South,179,3.0,3.0,88,0.00,,,0.00,WeatherTracker,2013-04-12 11:41:00,
2013-04-12 04:46:00,49.6,46.2,29.82,South,180,3.0,3.0,88,0.00,,,0.00,WeatherTracker,2013-04-12 11:46:00,
2013-04-12 04:51:00,49.8,46.4,29.82,South,180,2.0,4.0,88,0.00,,,0.00,WeatherTracker,2013-04-12 11:51:00,
2013-04-12 04:56:00,49.9,46.5,29.82,South,180,0.0,4.0,88,0.00,,,0.00,WeatherTracker,2013-04-12 11:56:00,
2013-04-12 05:02:00,49.9,46.5,29.82,South,179,0.0,2.0,88,0.00,,,0.00,WeatherTracker,2013-04-12 12:02:00,
2013-04-12 05:07:00,50.0,46.6,29.82,South,180,0.0,1.0,88,0.00,,,0.00,WeatherTracker,2013-04-12 12:07:00,
2013-04-12 05:12:00,49.9,46.5,29.82,South,179,0.0,1.0,88,0.00,,,0.00,WeatherTracker,2013-04-12 12:12:00,
2013-04-12 05:17:00,49.9,46.5,29.82,South,180,0.0,1.0,88,0.00,,,0.00,WeatherTracker,2013-04-12 12:17:00,
2013-04-12 05:22:00,49.9,46.5,29.82,South,179,0.0,1.0,88,0.00,,,0.00,WeatherTracker,2013-04-12 12:22:00,
2013-04-12 05:27:00,50.2,46.8,29.82,South,179,2.0,4.0,88,0.00,,,0.00,WeatherTracker,2013-04-12 12:27:00,
2013-04-12 05:32:00,50.4,46.7,29.82,South,182,9.0,9.0,87,0.00,,,0.00,WeatherTracker,2013-04-12 12:32:00,
2013-04-12 05:37:00,50.5,46.8,29.82,South,186,4.0,9.0,87,0.00,,,0.00,WeatherTracker,2013-04-12 12:37:00,
2013-04-12 05:42:00,50.5,46.8,29.82,South,185,2.0,9.0,87,0.00,,,0.00,WeatherTracker,2013-04-12 12:42:00,
2013-04-12 05:47:00,50.5,46.8,29.82,South,185,0.0,4.0,87,0.00,,,0.00,WeatherTracker,2013-04-12 12:47:00,
2013-04-12 05:52:00,50.2,46.2,29.82,South,185,1.0,3.0,86,0.00,,,0.00,WeatherTracker,2013-04-12 12:52:00,
2013-04-12 05:57:00,50.0,46.0,29.82,South,185,0.0,3.0,86,0.00,,,0.00,WeatherTracker,2013-04-12 12:57:00,
2013-04-12 06:02:00,49.9,46.2,29.82,South,185,1.0,3.0,87,0.00,,,0.00,WeatherTracker,2013-04-12 13:02:00,
2013-04-12 06:07:00,49.9,46.2,29.82,South,184,0.0,3.0,87,0.00,,,0.00,WeatherTracker,2013-04-12 13:07:00,
2013-04-12 06:12:00,49.9,46.2,29.82,South,184,0.0,3.0,87,0.00,,,0.00,WeatherTracker,2013-04-12 13:12:00,
2013-04-12 06:17:00,49.8,46.1,29.82,South,185,0.0,1.0,87,0.00,,,0.00,WeatherTracker,2013-04-12 13:17:00,
2013-04-12 06:22:00,49.8,46.1,29.82,South,185,0.0,1.0,87,0.00,,,0.00,WeatherTracker,2013-04-12 13:22:00,
2013-04-12 06:28:00,49.8,46.1,29.82,South,184,0.0,2.0,87,0.00,,,0.00,WeatherTracker,2013-04-12 13:28:00,
2013-04-12 06:33:00,49.8,46.1,29.83,South,185,2.0,2.0,87,0.00,,,0.00,WeatherTracker,2013-04-12 13:33:00,
2013-04-12 06:38:00,49.8,46.1,29.83,South,185,0.0,3.0,87,0.00,,,0.00,WeatherTracker,2013-04-12 13:38:00,
2013-04-12 06:43:00,49.8,46.1,29.83,South,185,1.0,3.0,87,0.00,,,0.00,WeatherTracker,2013-04-12 13:43:00,
2013-04-12 06:48:00,49.5,45.8,29.84,South,184,0.0,3.0,87,0.00,,,0.00,WeatherTracker,2013-04-12 13:48:00,
2013-04-12 06:53:00,49.5,46.1,29.84,South,185,0.0,3.0,88,0.00,,,0.00,WeatherTracker,2013-04-12 13:53:00,
2013-04-12 06:58:00,49.7,46.3,29.84,South,185,0.0,2.0,88,0.00,,,0.00,WeatherTracker,2013-04-12 13:58:00,
2013-04-12 07:03:00,49.9,46.5,29.84,South,184,1.0,2.0,88,0.00,,,0.00,WeatherTracker,2013-04-12 14:03:00,
2013-04-12 07:08:00,50.2,47.1,29.84,South,184,2.0,4.0,89,0.00,,,0.00,WeatherTracker,2013-04-12 14:08:00,
2013-04-12 07:13:00,50.4,48.2,29.84,South,185,1.0,4.0,92,0.00,,,0.00,WeatherTracker,2013-04-12 14:13:00,
2013-04-12 07:18:00,50.6,47.5,29.84,South,185,2.0,4.0,89,0.00,,,0.00,WeatherTracker,2013-04-12 14:18:00,
2013-04-12 07:23:00,50.9,47.5,29.84,South,184,1.0,4.0,88,0.00,,,0.00,WeatherTracker,2013-04-12 14:23:00,
2013-04-12 07:28:00,51.2,47.8,29.84,South,185,0.0,3.0,88,0.00,,,0.00,WeatherTracker,2013-04-12 14:28:00,
2013-04-12 07:33:00,51.8,48.4,29.85,South,184,2.0,3.0,88,0.00,,,0.00,WeatherTracker,2013-04-12 14:33:00,
2013-04-12 07:39:00,52.2,48.4,29.85,South,185,2.0,3.0,87,0.00,,,0.00,WeatherTracker,2013-04-12 14:39:00,
2013-04-12 07:44:00,52.5,48.7,29.85,South,184,0.0,3.0,87,0.00,,,0.00,WeatherTracker,2013-04-12 14:44:00,
2013-04-12 07:49:00,53.1,49.0,29.85,South,184,0.0,3.0,86,0.00,,,0.00,WeatherTracker,2013-04-12 14:49:00,
2013-04-12 07:54:00,53.4,49.0,29.85,South,185,0.0,0.0,85,0.00,,,0.00,WeatherTracker,2013-04-12 14:54:00,
2013-04-12 07:59:00,54.1,49.7,29.85,South,184,0.0,2.0,85,0.00,,,0.00,WeatherTracker,2013-04-12 14:59:00,
2013-04-12 08:04:00,54.6,49.5,29.85,South,184,0.0,2.0,83,0.00,,,0.00,WeatherTracker,2013-04-12 15:04:00,
2013-04-12 08:09:00,54.9,49.5,29.85,South,185,0.0,0.0,82,0.00,,,0.00,WeatherTracker,2013-04-12 15:09:00,
2013-04-12 08:14:00,55.4,49.7,29.85,South,185,0.0,2.0,81,0.00,,,0.00,WeatherTracker,2013-04-12 15:14:00,
2013-04-12 08:19:00,55.1,49.4,29.85,South,184,0.0,2.0,81,0.00,,,0.00,WeatherTracker,2013-04-12 15:19:00,
2013-04-12 08:24:00,54.4,48.7,29.85,South,185,4.0,4.0,81,0.00,,,0.00,WeatherTracker,2013-04-12 15:24:00,
2013-04-12 08:29:00,53.7,48.7,29.86,South,184,1.0,5.0,83,0.00,,,0.00,WeatherTracker,2013-04-12 15:29:00,
2013-04-12 08:34:00,53.8,49.1,29.86,South,184,1.0,5.0,84,0.00,,,0.00,WeatherTracker,2013-04-12 15:34:00,
2013-04-12 08:39:00,53.9,49.2,29.86,South,184,0.0,3.0,84,0.00,,,0.00,WeatherTracker,2013-04-12 15:39:00,
2013-04-12 08:44:00,54.1,49.4,29.86,South,179,3.0,6.0,84,0.00,,,0.00,WeatherTracker,2013-04-12 15:44:00,
2013-04-12 08:49:00,54.0,49.3,29.86,South,179,0.0,6.0,84,0.00,,,0.00,WeatherTracker,2013-04-12 15:49:00,
2013-04-12 08:54:00,54.9,50.2,29.86,South,178,0.0,6.0,84,0.00,,,0.00,WeatherTracker,2013-04-12 15:54:00,
2013-04-12 08:59:00,55.1,49.7,29.86,South,179,3.0,7.0,82,0.00,,,0.00,WeatherTracker,2013-04-12 15:59:00,
2013-04-12 09:04:00,54.2,48.8,29.86,South,179,6.0,8.0,82,0.00,,,0.00,WeatherTracker,2013-04-12 16:04:00,
2013-04-12 09:09:00,54.0,49.0,29.86,South,179,2.0,8.0,83,0.00,,,0.00,WeatherTracker,2013-04-12 16:09:00,
2013-04-12 09:14:00,54.4,49.7,29.86,South,179,0.0,6.0,84,0.00,,,0.00,WeatherTracker,2013-04-12 16:14:00,
2013-04-12 09:19:00,54.9,49.5,29.86,SE,132,6.0,6.0,82,0.00,,,0.00,WeatherTracker,2013-04-12 16:19:00,
2013-04-12 09:24:00,54.0,49.0,29.86,SSE,152,6.0,9.0,83,0.00,,,0.00,WeatherTracker,2013-04-12 16:24:00,
2013-04-12 09:29:00,53.3,48.6,29.86,SE,136,6.0,11.0,84,0.00,,,0.00,WeatherTracker,2013-04-12 16:29:00,
2013-04-12 09:34:00,53.1,48.7,29.86,SSE,150,10.0,11.0,85,0.00,,,0.00,WeatherTracker,2013-04-12 16:34:00,
2013-04-12 09:40:00,53.1,49.0,29.86,SSE,165,5.0,11.0,86,0.00,,,0.00,WeatherTracker,2013-04-12 16:40:00,
2013-04-12 09:45:00,53.1,49.0,29.87,SE,143,7.0,11.0,86,0.00,,,0.00,WeatherTracker,2013-04-12 16:45:00,
2013-04-12 09:50:00,53.3,49.2,29.87,SE,136,3.0,11.0,86,0.00,,,0.00,WeatherTracker,2013-04-12 16:50:00,
2013-04-12 09:55:00,54.0,49.6,29.87,SE,136,1.0,9.0,85,0.00,,,0.00,WeatherTracker,2013-04-12 16:55:00,
2013-04-12 10:00:00,54.6,49.9,29.86,SE,144,6.0,6.0,84,0.00,,,0.00,WeatherTracker,2013-04-12 17:00:00,
2013-04-12 10:05:00,55.0,49.9,29.86,SE,137,1.0,6.0,83,0.00,,,0.00,WeatherTracker,2013-04-12 17:05:00,
2013-04-12 10:10:00,55.2,49.8,29.86,SSE,156,2.0,6.0,82,0.00,,,0.00,WeatherTracker,2013-04-12 17:10:00,
2013-04-12 10:15:00,55.0,49.6,29.86,SSE,157,0.0,6.0,82,0.00,,,0.00,WeatherTracker,2013-04-12 17:15:00,
2013-04-12 10:20:00,54.9,49.5,29.86,SE,132,8.0,8.0,82,0.00,,,0.00,WeatherTracker,2013-04-12 17:20:00,
2013-04-12 10:25:00,54.8,49.7,29.86,SE,140,2.0,10.0,83,0.00,,,0.00,WeatherTracker,2013-04-12 17:25:00,
2013-04-12 10:30:00,55.0,49.9,29.86,SSE,154,1.0,10.0,83,0.00,,,0.00,WeatherTracker,2013-04-12 17:30:00,
2013-04-12 10:35:00,55.2,49.8,29.86,SSE,151,3.0,6.0,82,0.00,,,0.00,WeatherTracker,2013-04-12 17:35:00,
2013-04-12 10:40:00,55.0,49.6,29.86,SE,137,3.0,8.0,82,0.00,,,0.00,WeatherTracker,2013-04-12 17:40:00,
2013-04-12 10:45:00,55.0,49.6,29.87,ESE,114,3.0,8.0,82,0.00,,,0.00,WeatherTracker,2013-04-12 17:45:00,
2013-04-12 10:51:00,55.3,49.9,29.87,SSE,149,4.0,7.0,82,0.00,,,0.00,WeatherTracker,2013-04-12 17:51:00,
2013-04-12 10:56:00,55.9,50.2,29.87,ESE,119,1.0,7.0,81,0.00,,,0.00,WeatherTracker,2013-04-12 17:56:00,
2013-04-12 11:01:00,56.5,50.4,29.87,NE,37,3.0,5.0,80,0.00,,,0.00,WeatherTracker,2013-04-12 18:01:00,
2013-04-12 11:06:00,57.4,50.6,29.87,East,86,2.0,5.0,78,0.00,,,0.00,WeatherTracker,2013-04-12 18:06:00,
2013-04-12 11:11:00,57.0,50.2,29.87,South,179,3.0,6.0,78,0.00,,,0.00,WeatherTracker,2013-04-12 18:11:00,
2013-04-12 11:17:00,56.8,50.0,29.87,South,188,6.0,10.0,78,0.00,,,0.00,WeatherTracker,2013-04-12 18:17:00,
2013-04-12 11:22:00,56.8,50.0,29.87,South,187,2.0,10.0,78,0.00,,,0.00,WeatherTracker,2013-04-12 18:22:00,
2013-04-12 11:27:00,56.9,50.1,29.87,South,173,8.0,9.0,78,0.00,,,0.00,WeatherTracker,2013-04-12 18:27:00,
2013-04-12 12:26:00,61.1,52.0,29.85,NE,40,6.0,7.0,72,0.00,,,0.00,WeatherTracker,2013-04-12 19:26:00,
2013-04-12 12:31:00,61.3,51.4,29.85,NNE,33,4.0,7.0,70,0.00,,,0.00,WeatherTracker,2013-04-12 19:31:00,
2013-04-12 12:37:00,59.7,50.7,29.85,NE,38,4.0,7.0,72,0.00,,,0.00,WeatherTracker,2013-04-12 19:37:00,
2013-04-12 12:42:00,58.7,50.4,29.85,ENE,61,4.0,6.0,74,0.00,,,0.00,WeatherTracker,2013-04-12 19:42:00,
2013-04-12 12:47:00,58.3,50.8,29.85,ENE,59,4.0,6.0,76,0.00,,,0.00,WeatherTracker,2013-04-12 19:47:00,
2013-04-12 12:52:00,58.4,50.9,29.85,NE,55,3.0,6.0,76,0.00,,,0.00,WeatherTracker,2013-04-12 19:52:00,
2013-04-12 12:57:00,58.4,50.9,29.85,NE,55,5.0,7.0,76,0.00,,,0.00,WeatherTracker,2013-04-12 19:57:00,
2013-04-12 13:02:00,58.5,51.0,29.85,NE,55,4.0,7.0,76,0.00,,,0.00,WeatherTracker,2013-04-12 20:02:00,
2013-04-12 13:07:00,58.4,50.9,29.85,ENE,58,4.0,6.0,76,0.00,,,0.00,WeatherTracker,2013-04-12 20:07:00,
2013-04-12 13:12:00,58.4,50.9,29.85,ENE,58,3.0,6.0,76,0.00,,,0.00,WeatherTracker,2013-04-12 20:12:00,
2013-04-12 13:17:00,58.6,51.1,29.84,ENE,63,4.0,5.0,76,0.00,,,0.00,WeatherTracker,2013-04-12 20:17:00,
2013-04-12 13:22:00,58.7,51.2,29.84,ENE,63,4.0,5.0,76,0.00,,,0.00,WeatherTracker,2013-04-12 20:22:00,
2013-04-12 13:27:00,58.9,51.3,29.84,ENE,63,4.0,5.0,76,0.00,,,0.00,WeatherTracker,2013-04-12 20:27:00,
2013-04-12 13:32:00,59.1,50.8,29.84,ENE,63,5.0,5.0,74,0.00,,,0.00,WeatherTracker,2013-04-12 20:32:00,
2013-04-12 13:37:00,59.3,51.0,29.84,ENE,63,5.0,6.0,74,0.00,,,0.00,WeatherTracker,2013-04-12 20:37:00,
2013-04-12 13:42:00,59.6,51.7,29.84,ENE,64,4.0,6.0,75,0.00,,,0.00,WeatherTracker,2013-04-12 20:42:00,
2013-04-12 13:47:00,59.7,51.4,29.83,ENE,64,3.0,5.0,74,0.00,,,0.00,WeatherTracker,2013-04-12 20:47:00,
2013-04-12 13:52:00,59.8,51.5,29.83,ESE,103,4.0,5.0,74,0.00,,,0.00,WeatherTracker,2013-04-12 20:52:00,
2013-04-12 13:57:00,60.0,50.9,29.83,ESE,103,4.0,5.0,72,0.00,,,0.00,WeatherTracker,2013-04-12 20:57:00,
2013-04-12 14:03:00,60.5,51.0,29.82,ENE,74,4.0,5.0,71,0.00,,,0.00,WeatherTracker,2013-04-12 21:03:00,
2013-04-12 14:08:00,60.9,51.4,29.82,ENE,76,5.0,8.0,71,0.00,,,0.00,WeatherTracker,2013-04-12 21:08:00,
2013-04-12 14:13:00,61.1,51.2,29.82,East,80,4.0,8.0,70,0.00,,,0.00,WeatherTracker,2013-04-12 21:13:00,
2013-04-12 14:18:00,61.3,51.0,29.82,ENE,68,3.0,8.0,69,0.00,,,0.00,WeatherTracker,2013-04-12 21:18:00,
2013-04-12 14:23:00,61.7,51.4,29.82,ENE,69,4.0,5.0,69,0.00,,,0.00,WeatherTracker,2013-04-12 21:23:00,
2013-04-12 14:28:00,62.9,52.6,29.82,NE,34,4.0,6.0,69,0.00,,,0.00,WeatherTracker,2013-04-12 21:28:00,
2013-04-12 14:33:00,64.0,52.4,29.81,NE,34,0.0,6.0,66,0.00,,,0.00,WeatherTracker,2013-04-12 21:33:00,
2013-04-12 14:38:00,64.2,51.3,29.81,SW,230,9.0,10.0,63,0.00,,,0.00,WeatherTracker,2013-04-12 21:38:00,
2013-04-12 14:43:00,64.5,51.6,29.81,SW,215,1.0,12.0,63,0.00,,,0.00,WeatherTracker,2013-04-12 21:43:00,
2013-04-12 14:48:00,64.3,50.6,29.81,South,191,3.0,12.0,61,0.00,,,0.00,WeatherTracker,2013-04-12 21:48:00,
2013-04-12 14:53:00,64.3,50.6,29.81,SSW,200,4.0,12.0,61,0.00,,,0.00,WeatherTracker,2013-04-12 21:53:00,
2013-04-12 14:58:00,64.8,50.6,29.81,SW,217,4.0,12.0,60,0.00,,,0.00,WeatherTracker,2013-04-12 21:58:00,
2013-04-12 15:03:00,65.9,49.8,29.81,NE,51,8.0,10.0,56,0.00,,,0.00,WeatherTracker,2013-04-12 22:03:00,
2013-04-12 15:08:00,65.1,51.3,29.81,NE,36,7.0,9.0,61,0.00,,,0.00,WeatherTracker,2013-04-12 22:08:00,
2013-04-12 15:13:00,64.8,50.6,29.81,NE,46,5.0,9.0,60,0.00,,,0.00,WeatherTracker,2013-04-12 22:13:00,
2013-04-12 15:18:00,63.8,50.1,29.81,ENE,66,1.0,9.0,61,0.00,,,0.00,WeatherTracker,2013-04-12 22:18:00,
2013-04-12 15:23:00,64.2,49.6,29.81,ENE,72,6.0,7.0,59,0.00,,,0.00,WeatherTracker,2013-04-12 22:23:00,
2013-04-12 15:28:00,64.0,49.4,29.80,ENE,70,4.0,6.0,59,0.00,,,0.00,WeatherTracker,2013-04-12 22:28:00,
2013-04-12 15:34:00,64.3,50.6,29.80,ENE,61,7.0,7.0,61,0.00,,,0.00,WeatherTracker,2013-04-12 22:34:00,
2013-04-12 15:39:00,64.0,50.3,29.80,NE,40,7.0,8.0,61,0.00,,,0.00,WeatherTracker,2013-04-12 22:39:00,
2013-04-12 15:44:00,64.3,50.1,29.79,ENE,67,9.0,12.0,60,0.00,,,0.00,WeatherTracker,2013-04-12 22:44:00,
2013-04-12 15:49:00,64.8,49.2,29.79,ENE,69,9.0,15.0,57,0.00,,,0.00,WeatherTracker,2013-04-12 22:49:00,
2013-04-12 15:54:00,64.5,51.2,29.79,East,89,8.0,15.0,62,0.00,,,0.00,WeatherTracker,2013-04-12 22:54:00,
2013-04-12 15:59:00,64.3,50.6,29.79,ENE,57,12.0,16.0,61,0.00,,,0.00,WeatherTracker,2013-04-12 22:59:00,
2013-04-12 16:04:00,65.0,49.9,29.79,ENE,76,9.0,16.0,58,0.00,,,0.00,WeatherTracker,2013-04-12 23:04:00,
2013-04-12 16:09:00,64.9,50.7,29.79,ENE,78,7.0,14.0,60,0.00,,,0.00,WeatherTracker,2013-04-12 23:09:00,
2013-04-12 16:14:00,65.0,49.9,29.79,ENE,71,7.0,11.0,58,0.00,,,0.00,WeatherTracker,2013-04-12 23:14:00,
2013-04-12 16:19:00,65.2,50.0,29.79,ENE,72,10.0,10.0,58,0.00,,,0.00,WeatherTracker,2013-04-12 23:19:00,
2013-04-12 16:24:00,65.8,49.7,29.79,ENE,78,6.0,12.0,56,0.00,,,0.00,WeatherTracker,2013-04-12 23:24:00,
2013-04-12 16:29:00,65.9,49.8,29.78,NE,37,1.0,12.0,56,0.00,,,0.00,WeatherTracker,2013-04-12 23:29:00,
2013-04-12 16:34:00,66.7,49.5,29.78,NE,38,11.0,11.0,54,0.00,,,0.00,WeatherTracker,2013-04-12 23:34:00,
2013-04-12 16:39:00,67.0,48.8,29.78,ENE,76,5.0,14.0,52,0.00,,,0.00,WeatherTracker,2013-04-12 23:39:00,
2013-04-12 16:44:00,66.4,49.2,29.78,East,90,6.0,14.0,54,0.00,,,0.00,WeatherTracker,2013-04-12 23:44:00,
2013-04-12 16:49:00,66.9,48.7,29.78,East,82,7.0,13.0,52,0.00,,,0.00,WeatherTracker,2013-04-12 23:49:00,
2013-04-12 16:54:00,67.7,48.9,29.78,NNE,27,2.0,13.0,51,0.00,,,0.00,WeatherTracker,2013-04-12 23:54:00,
2013-04-12 16:59:00,69.0,45.6,29.78,WSW,246,5.0,17.0,43,0.00,,,0.00,WeatherTracker,2013-04-12 23:59:00,
2013-04-12 17:04:00,70.7,44.5,29.78,WSW,246,13.0,20.0,39,0.00,,,0.00,WeatherTracker,2013-04-13 00:04:00,
2013-04-12 17:09:00,71.2,45.0,29.78,SW,220,5.0,20.0,39,0.00,,,0.00,WeatherTracker,2013-04-13 00:09:00,
2013-04-12 17:14:00,71.3,44.4,29.77,SSW,209,8.0,19.0,38,0.00,,,0.00,WeatherTracker,2013-04-13 00:14:00,
2013-04-12 17:19:00,71.6,44.6,29.77,WSW,257,4.0,19.0,38,0.00,,,0.00,WeatherTracker,2013-04-13 00:19:00,
2013-04-12 17:24:00,71.7,44.7,29.77,WNW,300,12.0,17.0,38,0.00,,,0.00,WeatherTracker,2013-04-13 00:24:00,
2013-04-12 17:29:00,71.8,44.1,29.77,West,272,2.0,16.0,37,0.00,,,0.00,WeatherTracker,2013-04-13 00:29:00,
2013-04-12 17:34:00,72.1,43.7,29.77,WSW,244,6.0,16.0,36,0.00,,,0.00,WeatherTracker,2013-04-13 00:34:00,
2013-04-12 17:39:00,72.5,43.3,29.77,WSW,255,9.0,15.0,35,0.00,,,0.00,WeatherTracker,2013-04-13 00:39:00,
2013-04-12 17:44:00,72.5,44.7,29.77,West,262,3.0,15.0,37,0.00,,,0.00,WeatherTracker,2013-04-13 00:44:00,
2013-04-12 17:49:00,72.8,45.0,29.77,WNW,303,0.0,14.0,37,0.00,,,0.00,WeatherTracker,2013-04-13 00:49:00,
2013-04-12 17:55:00,72.9,43.6,29.77,SSW,198,0.0,10.0,35,0.00,,,0.00,WeatherTracker,2013-04-13 00:55:00,
2013-04-12 18:00:00,70.5,46.3,29.77,ESE,113,4.0,10.0,42,0.00,,,0.00,WeatherTracker,2013-04-13 01:00:00,
2013-04-12 18:05:00,66.6,48.9,29.77,ESE,123,10.0,11.0,53,0.00,,,0.00,WeatherTracker,2013-04-13 01:05:00,
2013-04-12 18:10:00,66.5,48.3,29.77,SE,130,5.0,11.0,52,0.00,,,0.00,WeatherTracker,2013-04-13 01:10:00,
2013-04-12 18:15:00,66.8,48.1,29.77,ESE,120,4.0,10.0,51,0.00,,,0.00,WeatherTracker,2013-04-13 01:15:00,
2013-04-12 18:20:00,66.5,50.8,29.77,ENE,65,5.0,7.0,57,0.00,,,0.00,WeatherTracker,2013-04-13 01:20:00,
2013-04-12 18:25:00,65.1,52.6,29.77,East,92,6.0,9.0,64,0.00,,,0.00,WeatherTracker,2013-04-13 01:25:00,
2013-04-12 18:30:00,62.9,52.6,29.77,East,87,6.0,9.0,69,0.00,,,0.00,WeatherTracker,2013-04-13 01:30:00,
2013-04-12 18:35:00,63.2,50.8,29.77,East,87,5.0,9.0,64,0.00,,,0.00,WeatherTracker,2013-04-13 01:35:00,
2013-04-12 18:40:00,63.6,49.9,29.77,East,87,4.0,7.0,61,0.00,,,0.00,WeatherTracker,2013-04-13 01:40:00,
2013-04-12 18:45:00,63.9,49.7,29.77,East,89,0.0,6.0,60,0.00,,,0.00,WeatherTracker,2013-04-13 01:45:00,
2013-04-12 18:50:00,63.9,50.6,29.77,East,88,1.0,4.0,62,0.00,,,0.00,WeatherTracker,2013-04-13 01:50:00,
2013-04-12 18:55:00,62.9,50.1,29.77,East,89,3.0,4.0,63,0.00,,,0.00,WeatherTracker,2013-04-13 01:55:00,
2013-04-12 19:00:00,62.6,49.8,29.77,East,90,0.0,4.0,63,0.00,,,0.00,WeatherTracker,2013-04-13 02:00:00,
2013-04-12 19:05:00,63.0,50.2,29.77,ESE,102,1.0,4.0,63,0.00,,,0.00,WeatherTracker,2013-04-13 02:05:00,
2013-04-12 19:10:00,63.0,49.3,29.77,SE,135,2.0,4.0,61,0.00,,,0.00,WeatherTracker,2013-04-13 02:10:00,
2013-04-12 19:15:00,63.0,48.9,29.77,SE,134,3.0,4.0,60,0.00,,,0.00,WeatherTracker,2013-04-13 02:15:00,
2013-04-12 19:20:00,62.8,49.1,29.77,SE,128,4.0,6.0,61,0.00,,,0.00,WeatherTracker,2013-04-13 02:20:00,
2013-04-12 19:25:00,62.5,49.3,29.77,SE,128,2.0,6.0,62,0.00,,,0.00,WeatherTracker,2013-04-13 02:25:00,
2013-04-12 19:31:00,62.1,49.8,29.77,SE,126,2.0,5.0,64,0.00,,,0.00,WeatherTracker,2013-04-13 02:31:00,
2013-04-12 19:36:00,61.5,50.4,29.77,SE,126,1.0,5.0,67,0.00,,,0.00,WeatherTracker,2013-04-13 02:36:00,
2013-04-12 19:41:00,60.8,51.0,29.77,SE,126,1.0,3.0,70,0.00,,,0.00,WeatherTracker,2013-04-13 02:41:00,
2013-04-12 19:46:00,60.1,50.7,29.78,SE,125,3.0,5.0,71,0.00,,,0.00,WeatherTracker,2013-04-13 02:46:00,
2013-04-12 19:51:00,60.0,50.2,29.78,ESE,123,6.0,6.0,70,0.00,,,0.00,WeatherTracker,2013-04-13 02:51:00,
2013-04-12 19:56:00,59.5,50.1,29.78,SE,128,4.0,7.0,71,0.00,,,0.00,WeatherTracker,2013-04-13 02:56:00,
2013-04-12 20:02:00,59.1,49.7,29.78,SE,128,2.0,7.0,71,0.00,,,0.00,WeatherTracker,2013-04-13 03:02:00,
2013-04-12 20:07:00,58.7,50.1,29.78,SE,128,1.0,4.0,73,0.00,,,0.00,WeatherTracker,2013-04-13 03:07:00,
2013-04-12 20:12:00,57.9,50.0,29.78,ESE,111,6.0,10.0,75,0.00,,,0.00,WeatherTracker,2013-04-13 03:12:00,
2013-04-12 20:17:00,56.9,50.5,29.79,ESE,119,7.0,10.0,79,0.00,,,0.00,WeatherTracker,2013-04-13 03:17:00,
2013-04-12 20:22:00,56.4,50.3,29.79,ESE,115,7.0,10.0,80,0.00,,,0.00,WeatherTracker,2013-04-13 03:22:00,
2013-04-12 20:27:00,56.5,50.7,29.79,SE,127,6.0,10.0,81,0.00,,,0.00,WeatherTracker,2013-04-13 03:27:00,
2013-04-12 20:32:00,56.8,50.7,29.79,SE,127,2.0,10.0,80,0.00,,,0.00,WeatherTracker,2013-04-13 03:32:00,
2013-04-12 20:37:00,56.8,50.7,29.79,SE,126,0.0,6.0,80,0.00,,,0.00,WeatherTracker,2013-04-13 03:37:00,
2013-04-12 20:42:00,56.8,50.7,29.79,East,90,1.0,3.0,80,0.00,,,0.00,WeatherTracker,2013-04-13 03:42:00,
2013-04-12 20:47:00,56.8,50.7,29.79,East,90,0.0,3.0,80,0.00,,,0.00,WeatherTracker,2013-04-13 03:47:00,
2013-04-12 20:52:00,56.8,50.4,29.79,East,90,2.0,3.0,79,0.00,,,0.00,WeatherTracker,2013-04-13 03:52:00,
2013-04-12 20:57:00,57.2,50.4,29.79,East,86,2.0,3.0,78,0.00,,,0.00,WeatherTracker,2013-04-13 03:57:00,
2013-04-12 21:00:00,57.4,50.6,29.79,ENE,78,2.0,3.0,78,0.00,,,0.00,WeatherTracker,2013-04-13 04:00:00,
2013-04-12 21:05:00,57.7,50.2,29.79,NE,36,2.0,4.0,76,0.00,,,0.00,WeatherTracker,2013-04-13 04:05:00,
2013-04-12 21:10:00,57.8,50.3,29.79,NE,36,0.0,4.0,76,0.00,,,0.00,WeatherTracker,2013-04-13 04:10:00,
2013-04-12 21:15:00,57.6,50.1,29.81,NE,36,1.0,3.0,76,0.00,,,0.00,WeatherTracker,2013-04-13 04:15:00,
2013-04-12 21:20:00,57.4,49.9,29.81,NE,36,1.0,3.0,76,0.00,,,0.00,WeatherTracker,2013-04-13 04:20:00,
2013-04-12 21:26:00,57.4,49.9,29.81,NE,36,3.0,3.0,76,0.00,,,0.00,WeatherTracker,2013-04-13 04:26:00,
2013-04-12 21:31:00,57.3,49.8,29.81,NE,36,1.0,4.0,76,0.00,,,0.00,WeatherTracker,2013-04-13 04:31:00,
2013-04-12 21:36:00,57.3,49.8,29.81,NE,36,1.0,4.0,76,0.00,,,0.00,WeatherTracker,2013-04-13 04:36:00,
2013-04-12 21:41:00,57.2,49.7,29.81,NE,36,1.0,2.0,76,0.00,,,0.00,WeatherTracker,2013-04-13 04:41:00,
2013-04-12 21:46:00,57.1,49.6,29.81,NE,36,0.0,3.0,76,0.00,,,0.00,WeatherTracker,2013-04-13 04:46:00,
2013-04-12 21:51:00,57.0,49.9,29.81,NE,36,0.0,3.0,77,0.00,,,0.00,WeatherTracker,2013-04-13 04:51:00,
2013-04-12 21:56:00,56.9,49.8,29.81,NE,36,0.0,0.0,77,0.00,,,0.00,WeatherTracker,2013-04-13 04:56:00,
2013-04-12 22:01:00,56.7,49.6,29.82,NE,36,1.0,0.0,77,0.00,,,0.00,WeatherTracker,2013-04-13 05:01:00,
2013-04-12 22:06:00,56.6,49.5,29.82,NE,36,1.0,2.0,77,0.00,,,0.00,WeatherTracker,2013-04-13 05:06:00,
2013-04-12 22:11:00,56.6,49.8,29.82,NE,36,2.0,4.0,78,0.00,,,0.00,WeatherTracker,2013-04-13 05:11:00,
2013-04-12 22:16:00,56.5,49.7,29.82,NNE,31,4.0,4.0,78,0.00,,,0.00,WeatherTracker,2013-04-13 05:16:00,
2013-04-12 22:21:00,56.3,49.5,29.82,NNE,17,3.0,5.0,78,0.00,,,0.00,WeatherTracker,2013-04-13 05:21:00,
2013-04-12 22:27:00,56.1,49.3,29.82,NNW,333,2.0,5.0,78,0.00,,,0.00,WeatherTracker,2013-04-13 05:27:00,
2013-04-12 22:32:00,55.9,49.1,29.82,NNW,333,0.0,5.0,78,0.00,,,0.00,WeatherTracker,2013-04-13 05:32:00,
2013-04-12 22:37:00,55.9,49.1,29.82,NNW,333,0.0,3.0,78,0.00,,,0.00,WeatherTracker,2013-04-13 05:37:00,
2013-04-12 22:42:00,55.9,49.1,29.82,NNW,333,0.0,2.0,78,0.00,,,0.00,WeatherTracker,2013-04-13 05:42:00,
2013-04-12 22:47:00,55.8,49.0,29.82,NNW,333,0.0,2.0,78,0.00,,,0.00,WeatherTracker,2013-04-13 05:47:00,
2013-04-12 22:52:00,55.7,48.9,29.82,NNW,333,1.0,2.0,78,0.00,,,0.00,WeatherTracker,2013-04-13 05:52:00,
2013-04-12 22:57:00,55.7,48.9,29.82,NNW,333,2.0,3.0,78,0.00,,,0.00,WeatherTracker,2013-04-13 05:57:00,
2013-04-12 23:02:00,55.5,49.1,29.83,NNW,333,2.0,4.0,79,0.00,,,0.00,WeatherTracker,2013-04-13 06:02:00,
2013-04-12 23:07:00,55.5,49.1,29.83,NW,318,3.0,5.0,79,0.00,,,0.00,WeatherTracker,2013-04-13 06:07:00,
2013-04-12 23:12:00,55.4,49.3,29.83,NW,315,1.0,5.0,80,0.00,,,0.00,WeatherTracker,2013-04-13 06:12:00,
2013-04-12 23:17:00,55.3,49.2,29.82,NW,315,0.0,5.0,80,0.00,,,0.00,WeatherTracker,2013-04-13 06:17:00,
2013-04-12 23:22:00,55.2,49.1,29.82,NW,315,2.0,3.0,80,0.00,,,0.00,WeatherTracker,2013-04-13 06:22:00,
2013-04-12 23:27:00,55.0,49.3,29.82,NW,315,2.0,3.0,81,0.00,,,0.00,WeatherTracker,2013-04-13 06:27:00,
2013-04-12 23:32:00,54.8,49.1,29.82,NW,315,1.0,4.0,81,0.00,,,0.00,WeatherTracker,2013-04-13 06:32:00,
2013-04-12 23:37:00,54.6,49.2,29.82,NW,315,0.0,4.0,82,0.00,,,0.00,WeatherTracker,2013-04-13 06:37:00,
2013-04-12 23:42:00,54.2,48.8,29.82,NW,315,0.0,4.0,82,0.00,,,0.00,WeatherTracker,2013-04-13 06:42:00,
2013-04-12 23:47:00,54.0,49.0,29.82,NW,315,3.0,4.0,83,0.00,,,0.00,WeatherTracker,2013-04-13 06:47:00,
2013-04-12 23:53:00,53.2,48.2,29.82,ESE,115,7.0,11.0,83,0.00,,,0.00,WeatherTracker,2013-04-13 06:53:00,
2013-04-12 23:58:00,52.8,48.4,29.82,East,95,7.0,11.0,85,0.00,,,0.00,WeatherTracker,2013-04-13 06:58:00,